Jpo Gemini — A8VF7 — position and weather

sailwx.info

Track history (hours):
 
Tides and Currents Weather Stations Pressure Air Temp Water Temp Dewpoint Dewpoint Depression Visibility Wind Speed Wind Dir Waves Ship Positions

Jpo Gemini

Last reported at 2018-Apr-23 23:00 UTC. Time now 2018-Apr-24 01:12 UTC.
Position N 23°54' W 016°54'.

Length 207 m; draft 10.1 m.

Type: Cargo ship. MMSI: 636091995.

Wind from 340 at 17 knots

Barometer 1020.0 mb
Air temperature 18.0 ° C
Visibility: greater than 10.8 NM
Dewpoint 14.6 ° C
Water temperature 20.0 ° C

Date/timePositionNaut miles runAvg speedWind from/ knotsBaromVisibWave heightAir tempDewpointWater temp
2018-Apr-23 23:00N 23°54' W 016°54'81 9.0 340 / 171020.010.8 18.014.620.0
2018-Apr-23 14:00N 22°36' W 017°18'16310.9 360 / 221020.010.8 20.516.421.0
2018-Apr-22 23:00N 19°54' W 017°36'9610.7 360 / 281015.010.8 19.015.619.0
2018-Apr-22 14:00N 18°18' W 017°42'15011.5 360 / 221017.010.8 19.015.621.0
2018-Apr-22 01:00N 15°48' W 017°42'3015.0 360 / 211015.0 5.4 19.016.521.0
2018-Apr-21 23:00N 15°18' W 017°42'12012.0 360 / 251014.0 5.4 19.015.621.0
2018-Apr-21 13:00N 13°18' W 017°48'9311.3 360 / 181015.5 5.4 20.518.122.0
2018-Apr-21 04:44N 11°46' W 017°33'1011.3
2018-Apr-21 03:52N 11°36' W 017°31'2513.3
2018-Apr-21 02:00N 11°12' W 017°24'1 6.7 340 / 151013.0 5.4 21.018.624.0
2018-Apr-21 01:48N 11°13' W 017°25'511.6
2018-Apr-21 01:23N 11°08' W 017°24'5211.5
2018-Apr-20 20:50N 10°21' W 016°60'411.6
2018-Apr-20 20:29N 10°18' W 016°57'511.4
2018-Apr-20 20:00N 10°13' W 016°55'611.5
2018-Apr-20 19:31N 10°08' W 016°52'611.5
2018-Apr-20 19:01N 10°03' W 016°49'611.3
2018-Apr-20 18:30N 09°59' W 016°45'510.9
2018-Apr-20 18:00N 09°55' W 016°42'611.5
2018-Apr-20 17:29N 09°50' W 016°37'511.2
2018-Apr-20 17:00N 09°47' W 016°33'611.1
2018-Apr-20 16:30N 09°43' W 016°29'611.1
2018-Apr-20 16:01N 09°40' W 016°25'611.3
2018-Apr-20 15:30N 09°36' W 016°20'611.3
2018-Apr-20 15:00N 09°32' W 016°16'611.0
2018-Apr-20 14:30N 09°28' W 016°12'611.2
2018-Apr-20 14:00N 09°24' W 016°08'611.7
2018-Apr-20 13:30N 09°21' W 016°04'611.9
2018-Apr-20 13:01N 09°17' W 015°59'911.8
2018-Apr-20 12:14N 09°11' W 015°52'312.0
2018-Apr-20 12:01N 09°09' W 015°50'611.8
2018-Apr-20 11:30N 09°05' W 015°46'715.0
2018-Apr-20 11:00N 09°00' W 015°40'612.4
2018-Apr-20 10:30N 08°56' W 015°35'612.3
2018-Apr-20 10:01N 08°51' W 015°31'612.4
2018-Apr-20 09:30N 08°47' W 015°26'612.7
2018-Apr-20 09:00N 08°43' W 015°21'2112.6
2018-Apr-20 07:19N 08°29' W 015°05'1412.5
2018-Apr-20 06:09N 08°19' W 014°55'212.5
2018-Apr-20 06:00N 08°18' W 014°53'1612.1
2018-Apr-20 04:43N 08°07' W 014°42'411.8
2018-Apr-20 04:24N 08°05' W 014°39'711.6
2018-Apr-20 03:47N 07°60' W 014°34'2815.5
2018-Apr-20 02:00N 07°42' W 014°12'30 9.9 310 / 141014.0 5.4 27.022.630.0
2018-Apr-19 23:00N 07°24' W 013°48'23611.2 320 / 151015.010.8 27.024.131.0
2018-Apr-19 02:00N 05°24' W 010°24'22 7.2 210 / 161015.5 5.4 27.523.931.0
2018-Apr-18 23:00N 05°12' W 010°06'9911.0 210 / 101015.010.8 28.025.231.0
2018-Apr-18 14:00N 04°30' W 008°36'116 9.7 210 / 151015.0 5.4
2018-Apr-18 02:00N 04°06' W 006°42'18 9.0 210 / 161013.0 5.4 28.024.430.0
2018-Apr-18 00:00N 04°06' W 006°24'210 9.1 210 / 101014.010.8 28.023.731.0
2018-Apr-17 01:00N 04°18' W 002°54'146 9.3 240 / 101015.010.8 28.026.630.0
2018-Apr-16 09:14N 05°01' W 000°34'310.2
2018-Apr-16 08:55N 05°02' W 000°31'410.2
2018-Apr-16 08:29N 05°04' W 000°27'910.1
2018-Apr-16 07:37N 05°10' W 000°20'110.2
2018-Apr-16 07:29N 05°11' W 000°20'510.0
2018-Apr-16 07:00N 05°14' W 000°16'5 9.8
2018-Apr-16 06:30N 05°18' W 000°12'610.1
2018-Apr-16 05:56N 05°21' W 000°08'410.0
2018-Apr-16 05:30N 05°24' W 000°05'5 9.9
2018-Apr-16 05:00N 05°28' W 000°01'5 9.8
2018-Apr-16 04:30N 05°31' E 000°03'5 9.3
2018-Apr-16 04:00N 05°35' E 000°04'4 8.2
2018-Apr-16 03:30N 05°38' E 000°01'1 1.4
2018-Apr-16 03:00N 05°37' E 000°00'0 0.0
2018-Apr-16 02:29N 05°37' E 000°00'0 0.0
2018-Apr-16 01:59N 05°37' E 000°00'0 0.0
2018-Apr-16 01:29N 05°37' E 000°00'0 0.0
2018-Apr-16 00:59N 05°37' E 000°00'0 0.0
2018-Apr-16 00:29N 05°37' E 000°00'0 0.0
2018-Apr-15 23:59N 05°37' E 000°00'0 0.0
2018-Apr-15 23:29N 05°37' E 000°00'0 0.0
2018-Apr-15 22:59N 05°37' E 000°00'0 0.0
2018-Apr-15 22:29N 05°37' E 000°00'0 0.0
2018-Apr-15 21:59N 05°37' E 000°00'0 0.0
2018-Apr-15 21:29N 05°37' E 000°00'0 0.0
2018-Apr-15 20:59N 05°37' E 000°00'0 0.0
2018-Apr-15 20:29N 05°37' E 000°00'0 0.0
2018-Apr-15 19:59N 05°37' E 000°00'0 0.0
2018-Apr-15 19:29N 05°37' E 000°00'0 0.0
2018-Apr-15 18:59N 05°37' E 000°00'0 0.0
2018-Apr-15 18:29N 05°37' E 000°00'0 0.0
2018-Apr-15 17:59N 05°37' E 000°00'0 0.0
2018-Apr-15 17:29N 05°37' E 000°00'0 0.0
2018-Apr-15 16:59N 05°37' E 000°00'0 0.0
2018-Apr-15 16:29N 05°37' E 000°00'0 0.0
2018-Apr-15 15:59N 05°37' E 000°00'0 0.0
2018-Apr-15 15:29N 05°37' E 000°00'0 0.0
2018-Apr-15 14:59N 05°37' E 000°00'0 0.0
2018-Apr-15 14:29N 05°37' E 000°00'0 0.0
2018-Apr-15 13:59N 05°37' E 000°00'0 0.0
2018-Apr-15 13:29N 05°37' E 000°00'0 0.0
2018-Apr-15 12:59N 05°37' E 000°00'0 0.0
2018-Apr-15 12:29N 05°37' E 000°00'0 0.0
2018-Apr-15 11:59N 05°37' E 000°00'0 0.0
2018-Apr-15 11:29N 05°37' E 000°00'0 0.0
2018-Apr-15 10:59N 05°37' E 000°00'0 0.0
2018-Apr-15 10:29N 05°37' E 000°00'0 0.0
2018-Apr-15 09:59N 05°37' E 000°00'0 0.0
2018-Apr-15 09:29N 05°37' E 000°00'0 0.0
2018-Apr-15 08:59N 05°37' E 000°00'0 0.0
2018-Apr-15 08:29N 05°37' E 000°00'0 0.0
2018-Apr-15 07:59N 05°37' E 000°00'0 0.0
2018-Apr-15 07:29N 05°37' E 000°00'0 0.0
2018-Apr-15 06:59N 05°37' E 000°00'0 0.0
2018-Apr-15 06:29N 05°37' E 000°00'0 0.0
2018-Apr-15 05:59N 05°37' E 000°00'0 0.0
2018-Apr-15 05:29N 05°37' E 000°00'0 0.0
2018-Apr-15 04:59N 05°37' E 000°00'0 0.0
2018-Apr-15 04:29N 05°37' E 000°00'0 0.0
2018-Apr-15 03:59N 05°37' E 000°00'0 0.0
2018-Apr-15 03:29N 05°37' E 000°00'0 0.0
2018-Apr-15 02:59N 05°37' E 000°00'0 0.0
2018-Apr-15 02:29N 05°37' E 000°00'0 0.0
2018-Apr-15 01:59N 05°37' E 000°00'0 0.0
2018-Apr-15 01:29N 05°37' E 000°00'0 0.0
2018-Apr-15 00:59N 05°37' E 000°00'0 0.0
2018-Apr-15 00:29N 05°37' E 000°00'0 0.0
2018-Apr-14 23:59N 05°37' E 000°00'0 0.0
2018-Apr-14 23:29N 05°37' E 000°00'0 0.0
2018-Apr-14 22:59N 05°37' E 000°00'0 0.0
2018-Apr-14 22:29N 05°37' E 000°00'0 0.0
2018-Apr-14 21:59N 05°37' E 000°00'0 0.0
2018-Apr-14 21:29N 05°37' E 000°00'0 0.0
2018-Apr-14 20:59N 05°37' E 000°00'0 0.0
2018-Apr-14 20:29N 05°37' E 000°00'0 0.0
2018-Apr-14 19:59N 05°37' E 000°00'0 0.0
2018-Apr-14 19:29N 05°37' E 000°00'0 0.1
2018-Apr-14 19:01N 05°37' E 000°01'2 3.7
2018-Apr-14 18:30N 05°38' E 000°02'2 3.6
2018-Apr-14 18:00N 05°36' E 000°03'1 2.8
2018-Apr-14 17:29N 05°35' E 000°04'0 0.1
2018-Apr-14 16:59N 05°35' E 000°04'0 0.0
2018-Apr-14 16:29N 05°35' E 000°04'0 0.0
2018-Apr-14 15:59N 05°35' E 000°04'0 0.0
2018-Apr-14 15:29N 05°35' E 000°04'0 0.0
2018-Apr-14 14:59N 05°35' E 000°04'0 0.0
2018-Apr-14 14:29N 05°35' E 000°04'0 0.0
2018-Apr-14 13:59N 05°35' E 000°04'0 0.0
2018-Apr-14 13:29N 05°35' E 000°04'0 0.0
2018-Apr-14 12:59N 05°35' E 000°04'0 0.0
2018-Apr-14 12:29N 05°35' E 000°04'0 0.0
2018-Apr-14 11:59N 05°35' E 000°04'0 0.0
2018-Apr-14 11:29N 05°35' E 000°04'0 0.0
2018-Apr-14 10:59N 05°35' E 000°04'0 0.0
2018-Apr-14 10:29N 05°35' E 000°04'0 0.0
2018-Apr-14 09:59N 05°35' E 000°04'0 0.0
2018-Apr-14 09:29N 05°35' E 000°04'0 0.0
2018-Apr-14 08:59N 05°35' E 000°04'0 0.0
2018-Apr-14 08:29N 05°35' E 000°04'0 0.0
2018-Apr-14 07:59N 05°35' E 000°04'0 0.1
2018-Apr-14 07:29N 05°35' E 000°04'0 0.0
2018-Apr-14 06:59N 05°35' E 000°04'0 0.1
2018-Apr-14 06:29N 05°35' E 000°04'0 0.0
2018-Apr-14 05:59N 05°35' E 000°04'0 0.0
2018-Apr-14 05:29N 05°35' E 000°04'0 0.0
2018-Apr-14 04:59N 05°35' E 000°04'0 0.0
2018-Apr-14 04:26N 05°35' E 000°04'0 0.0
2018-Apr-14 03:59N 05°35' E 000°04'0 0.1
2018-Apr-14 03:29N 05°35' E 000°04'0 0.1
2018-Apr-14 02:59N 05°35' E 000°04'0 0.0
2018-Apr-14 02:29N 05°35' E 000°04'0 0.0
2018-Apr-14 01:59N 05°35' E 000°04'0 0.1
2018-Apr-14 01:29N 05°35' E 000°04'0 0.0
2018-Apr-14 00:59N 05°35' E 000°04'0 0.0
2018-Apr-14 00:29N 05°35' E 000°04'0 0.0
2018-Apr-13 23:59N 05°35' E 000°04'0 0.0
2018-Apr-13 23:29N 05°35' E 000°04'  
Track history (hours):
 
Tides and Currents Weather Stations Pressure Air Temp Water Temp Dewpoint Dewpoint Depression Visibility Wind Speed Wind Dir Waves Ship Positions

Jpo Gemini

Last reported at 2018-Apr-23 23:00 UTC. Time now 2018-Apr-24 01:12 UTC.
Position N 23°54' W 016°54'.

Length 207 m; draft 10.1 m.

Type: Cargo ship. MMSI: 636091995.

Wind from 340 at 17 knots

Barometer 1020.0 mb
Air temperature 18.0 ° C
Visibility: greater than 10.8 NM
Dewpoint 14.6 ° C
Water temperature 20.0 ° C

Date/timePositionNaut miles runAvg speedWind from/ knotsBaromVisibWave heightAir tempDewpointWater temp
2018-Apr-23 23:00N 23°54' W 016°54'81 9.0 340 / 171020.010.8 18.014.620.0
2018-Apr-23 14:00N 22°36' W 017°18'16310.9 360 / 221020.010.8 20.516.421.0
2018-Apr-22 23:00N 19°54' W 017°36'9610.7 360 / 281015.010.8 19.015.619.0
2018-Apr-22 14:00N 18°18' W 017°42'15011.5 360 / 221017.010.8 19.015.621.0
2018-Apr-22 01:00N 15°48' W 017°42'3015.0 360 / 211015.0 5.4 19.016.521.0
2018-Apr-21 23:00N 15°18' W 017°42'12012.0 360 / 251014.0 5.4 19.015.621.0
2018-Apr-21 13:00N 13°18' W 017°48'9311.3 360 / 181015.5 5.4 20.518.122.0
2018-Apr-21 04:44N 11°46' W 017°33'1011.3
2018-Apr-21 03:52N 11°36' W 017°31'2513.3
2018-Apr-21 02:00N 11°12' W 017°24'1 6.7 340 / 151013.0 5.4 21.018.624.0
2018-Apr-21 01:48N 11°13' W 017°25'511.6
2018-Apr-21 01:23N 11°08' W 017°24'5211.5
2018-Apr-20 20:50N 10°21' W 016°60'411.6
2018-Apr-20 20:29N 10°18' W 016°57'511.4
2018-Apr-20 20:00N 10°13' W 016°55'611.5
2018-Apr-20 19:31N 10°08' W 016°52'611.5
2018-Apr-20 19:01N 10°03' W 016°49'611.3
2018-Apr-20 18:30N 09°59' W 016°45'510.9
2018-Apr-20 18:00N 09°55' W 016°42'611.5
2018-Apr-20 17:29N 09°50' W 016°37'511.2
2018-Apr-20 17:00N 09°47' W 016°33'611.1
2018-Apr-20 16:30N 09°43' W 016°29'611.1
2018-Apr-20 16:01N 09°40' W 016°25'611.3
2018-Apr-20 15:30N 09°36' W 016°20'611.3
2018-Apr-20 15:00N 09°32' W 016°16'611.0
2018-Apr-20 14:30N 09°28' W 016°12'611.2
2018-Apr-20 14:00N 09°24' W 016°08'611.7
2018-Apr-20 13:30N 09°21' W 016°04'611.9
2018-Apr-20 13:01N 09°17' W 015°59'911.8
2018-Apr-20 12:14N 09°11' W 015°52'312.0
2018-Apr-20 12:01N 09°09' W 015°50'611.8
2018-Apr-20 11:30N 09°05' W 015°46'715.0
2018-Apr-20 11:00N 09°00' W 015°40'612.4
2018-Apr-20 10:30N 08°56' W 015°35'612.3
2018-Apr-20 10:01N 08°51' W 015°31'612.4
2018-Apr-20 09:30N 08°47' W 015°26'612.7
2018-Apr-20 09:00N 08°43' W 015°21'2112.6
2018-Apr-20 07:19N 08°29' W 015°05'1412.5
2018-Apr-20 06:09N 08°19' W 014°55'212.5
2018-Apr-20 06:00N 08°18' W 014°53'1612.1
2018-Apr-20 04:43N 08°07' W 014°42'411.8
2018-Apr-20 04:24N 08°05' W 014°39'711.6
2018-Apr-20 03:47N 07°60' W 014°34'2815.5
2018-Apr-20 02:00N 07°42' W 014°12'30 9.9 310 / 141014.0 5.4 27.022.630.0
2018-Apr-19 23:00N 07°24' W 013°48'23611.2 320 / 151015.010.8 27.024.131.0
2018-Apr-19 02:00N 05°24' W 010°24'22 7.2 210 / 161015.5 5.4 27.523.931.0
2018-Apr-18 23:00N 05°12' W 010°06'9911.0 210 / 101015.010.8 28.025.231.0
2018-Apr-18 14:00N 04°30' W 008°36'116 9.7 210 / 151015.0 5.4
2018-Apr-18 02:00N 04°06' W 006°42'18 9.0 210 / 161013.0 5.4 28.024.430.0
2018-Apr-18 00:00N 04°06' W 006°24'210 9.1 210 / 101014.010.8 28.023.731.0
2018-Apr-17 01:00N 04°18' W 002°54'146 9.3 240 / 101015.010.8 28.026.630.0
2018-Apr-16 09:14N 05°01' W 000°34'310.2
2018-Apr-16 08:55N 05°02' W 000°31'410.2
2018-Apr-16 08:29N 05°04' W 000°27'910.1
2018-Apr-16 07:37N 05°10' W 000°20'110.2
2018-Apr-16 07:29N 05°11' W 000°20'510.0
2018-Apr-16 07:00N 05°14' W 000°16'5 9.8
2018-Apr-16 06:30N 05°18' W 000°12'610.1
2018-Apr-16 05:56N 05°21' W 000°08'410.0
2018-Apr-16 05:30N 05°24' W 000°05'5 9.9
2018-Apr-16 05:00N 05°28' W 000°01'5 9.8
2018-Apr-16 04:30N 05°31' E 000°03'5 9.3
2018-Apr-16 04:00N 05°35' E 000°04'4 8.2
2018-Apr-16 03:30N 05°38' E 000°01'1 1.4
2018-Apr-16 03:00N 05°37' E 000°00'0 0.0
2018-Apr-16 02:29N 05°37' E 000°00'0 0.0
2018-Apr-16 01:59N 05°37' E 000°00'0 0.0
2018-Apr-16 01:29N 05°37' E 000°00'0 0.0
2018-Apr-16 00:59N 05°37' E 000°00'0 0.0
2018-Apr-16 00:29N 05°37' E 000°00'0 0.0
2018-Apr-15 23:59N 05°37' E 000°00'0 0.0
2018-Apr-15 23:29N 05°37' E 000°00'0 0.0
2018-Apr-15 22:59N 05°37' E 000°00'0 0.0
2018-Apr-15 22:29N 05°37' E 000°00'0 0.0
2018-Apr-15 21:59N 05°37' E 000°00'0 0.0
2018-Apr-15 21:29N 05°37' E 000°00'0 0.0
2018-Apr-15 20:59N 05°37' E 000°00'0 0.0
2018-Apr-15 20:29N 05°37' E 000°00'0 0.0
2018-Apr-15 19:59N 05°37' E 000°00'0 0.0
2018-Apr-15 19:29N 05°37' E 000°00'0 0.0
2018-Apr-15 18:59N 05°37' E 000°00'0 0.0
2018-Apr-15 18:29N 05°37' E 000°00'0 0.0
2018-Apr-15 17:59N 05°37' E 000°00'0 0.0
2018-Apr-15 17:29N 05°37' E 000°00'0 0.0
2018-Apr-15 16:59N 05°37' E 000°00'0 0.0
2018-Apr-15 16:29N 05°37' E 000°00'0 0.0
2018-Apr-15 15:59N 05°37' E 000°00'0 0.0
2018-Apr-15 15:29N 05°37' E 000°00'0 0.0
2018-Apr-15 14:59N 05°37' E 000°00'0 0.0
2018-Apr-15 14:29N 05°37' E 000°00'0 0.0
2018-Apr-15 13:59N 05°37' E 000°00'0 0.0
2018-Apr-15 13:29N 05°37' E 000°00'0 0.0
2018-Apr-15 12:59N 05°37' E 000°00'0 0.0
2018-Apr-15 12:29N 05°37' E 000°00'0 0.0
2018-Apr-15 11:59N 05°37' E 000°00'0 0.0
2018-Apr-15 11:29N 05°37' E 000°00'0 0.0
2018-Apr-15 10:59N 05°37' E 000°00'0 0.0
2018-Apr-15 10:29N 05°37' E 000°00'0 0.0
2018-Apr-15 09:59N 05°37' E 000°00'0 0.0
2018-Apr-15 09:29N 05°37' E 000°00'0 0.0
2018-Apr-15 08:59N 05°37' E 000°00'0 0.0
2018-Apr-15 08:29N 05°37' E 000°00'0 0.0
2018-Apr-15 07:59N 05°37' E 000°00'0 0.0
2018-Apr-15 07:29N 05°37' E 000°00'0 0.0
2018-Apr-15 06:59N 05°37' E 000°00'0 0.0
2018-Apr-15 06:29N 05°37' E 000°00'0 0.0
2018-Apr-15 05:59N 05°37' E 000°00'0 0.0
2018-Apr-15 05:29N 05°37' E 000°00'0 0.0
2018-Apr-15 04:59N 05°37' E 000°00'0 0.0
2018-Apr-15 04:29N 05°37' E 000°00'0 0.0
2018-Apr-15 03:59N 05°37' E 000°00'0 0.0
2018-Apr-15 03:29N 05°37' E 000°00'0 0.0
2018-Apr-15 02:59N 05°37' E 000°00'0 0.0
2018-Apr-15 02:29N 05°37' E 000°00'0 0.0
2018-Apr-15 01:59N 05°37' E 000°00'0 0.0
2018-Apr-15 01:29N 05°37' E 000°00'0 0.0
2018-Apr-15 00:59N 05°37' E 000°00'0 0.0
2018-Apr-15 00:29N 05°37' E 000°00'0 0.0
2018-Apr-14 23:59N 05°37' E 000°00'0 0.0
2018-Apr-14 23:29N 05°37' E 000°00'0 0.0
2018-Apr-14 22:59N 05°37' E 000°00'0 0.0
2018-Apr-14 22:29N 05°37' E 000°00'0 0.0
2018-Apr-14 21:59N 05°37' E 000°00'0 0.0
2018-Apr-14 21:29N 05°37' E 000°00'0 0.0
2018-Apr-14 20:59N 05°37' E 000°00'0 0.0
2018-Apr-14 20:29N 05°37' E 000°00'0 0.0
2018-Apr-14 19:59N 05°37' E 000°00'0 0.0
2018-Apr-14 19:29N 05°37' E 000°00'0 0.1
2018-Apr-14 19:01N 05°37' E 000°01'2 3.7
2018-Apr-14 18:30N 05°38' E 000°02'2 3.6
2018-Apr-14 18:00N 05°36' E 000°03'1 2.8
2018-Apr-14 17:29N 05°35' E 000°04'0 0.1
2018-Apr-14 16:59N 05°35' E 000°04'0 0.0
2018-Apr-14 16:29N 05°35' E 000°04'0 0.0
2018-Apr-14 15:59N 05°35' E 000°04'0 0.0
2018-Apr-14 15:29N 05°35' E 000°04'0 0.0
2018-Apr-14 14:59N 05°35' E 000°04'0 0.0
2018-Apr-14 14:29N 05°35' E 000°04'0 0.0
2018-Apr-14 13:59N 05°35' E 000°04'0 0.0
2018-Apr-14 13:29N 05°35' E 000°04'0 0.0
2018-Apr-14 12:59N 05°35' E 000°04'0 0.0
2018-Apr-14 12:29N 05°35' E 000°04'0 0.0
2018-Apr-14 11:59N 05°35' E 000°04'0 0.0
2018-Apr-14 11:29N 05°35' E 000°04'0 0.0
2018-Apr-14 10:59N 05°35' E 000°04'0 0.0
2018-Apr-14 10:29N 05°35' E 000°04'0 0.0
2018-Apr-14 09:59N 05°35' E 000°04'0 0.0
2018-Apr-14 09:29N 05°35' E 000°04'0 0.0
2018-Apr-14 08:59N 05°35' E 000°04'0 0.0
2018-Apr-14 08:29N 05°35' E 000°04'0 0.0
2018-Apr-14 07:59N 05°35' E 000°04'0 0.1
2018-Apr-14 07:29N 05°35' E 000°04'0 0.0
2018-Apr-14 06:59N 05°35' E 000°04'0 0.1
2018-Apr-14 06:29N 05°35' E 000°04'0 0.0
2018-Apr-14 05:59N 05°35' E 000°04'0 0.0
2018-Apr-14 05:29N 05°35' E 000°04'0 0.0
2018-Apr-14 04:59N 05°35' E 000°04'0 0.0
2018-Apr-14 04:26N 05°35' E 000°04'0 0.0
2018-Apr-14 03:59N 05°35' E 000°04'0 0.1
2018-Apr-14 03:29N 05°35' E 000°04'0 0.1
2018-Apr-14 02:59N 05°35' E 000°04'0 0.0
2018-Apr-14 02:29N 05°35' E 000°04'0 0.0
2018-Apr-14 01:59N 05°35' E 000°04'0 0.1
2018-Apr-14 01:29N 05°35' E 000°04'0 0.0
2018-Apr-14 00:59N 05°35' E 000°04'0 0.0
2018-Apr-14 00:29N 05°35' E 000°04'0 0.0
2018-Apr-13 23:59N 05°35' E 000°04'0 0.0
2018-Apr-13 23:29N 05°35' E 000°04'  

Dump ship's entire track history